createdAt,value
2022-12-02T00:03:44.538Z,7.82
2022-12-02T00:08:49.471Z,7.38
2022-12-02T00:13:54.137Z,4.93
2022-12-02T00:19:01.467Z,3.60
2022-12-02T00:24:06.442Z,5.05
2022-12-02T00:29:11.142Z,5.10
2022-12-02T00:34:18.562Z,4.80
2022-12-02T00:39:23.786Z,3.92
2022-12-02T00:44:40.707Z,4.35
2022-12-02T00:49:47.967Z,4.65
2022-12-02T00:54:52.805Z,4.03
2022-12-02T00:59:57.743Z,3.80
2022-12-02T01:05:05.119Z,3.67
2022-12-02T01:10:10.571Z,3.65
2022-12-02T01:15:15.483Z,3.22
2022-12-02T01:20:22.923Z,2.80
2022-12-02T01:25:27.925Z,3.50
2022-12-02T01:30:32.764Z,3.00
2022-12-02T01:35:40.283Z,3.35
2022-12-02T01:40:45.191Z,3.33
2022-12-02T01:45:49.974Z,3.40
2022-12-02T01:50:57.315Z,3.20
2022-12-02T01:56:01.989Z,3.40
2022-12-02T02:01:06.826Z,4.10
2022-12-02T02:06:14.156Z,3.58
2022-12-02T02:11:19.116Z,4.18
2022-12-02T02:16:23.815Z,3.05
2022-12-02T02:21:32.375Z,3.38
2022-12-02T02:26:39.667Z,3.80
2022-12-02T02:31:44.348Z,3.38
2022-12-02T02:36:49.123Z,8.27
2022-12-02T02:41:57.666Z,8.85
2022-12-02T02:47:02.420Z,7.93
2022-12-02T02:52:07.043Z,4.75
2022-12-02T02:57:14.408Z,4.43
2022-12-02T03:02:19.123Z,4.70
2022-12-02T03:07:24.387Z,3.97
2022-12-02T03:12:31.743Z,4.00
2022-12-02T03:17:36.635Z,3.50
2022-12-02T03:22:41.344Z,3.00
2022-12-02T03:27:49.075Z,2.13
2022-12-02T03:32:54.111Z,1.90
2022-12-02T03:37:59.004Z,2.75
2022-12-02T03:43:06.819Z,2.83
2022-12-02T03:48:12.543Z,2.63
2022-12-02T03:53:17.328Z,2.65
2022-12-02T03:58:35.247Z,2.70
2022-12-02T04:03:39.884Z,2.63
2022-12-02T04:08:44.783Z,3.08
2022-12-02T04:13:52.088Z,2.80
2022-12-02T04:18:56.796Z,2.90
2022-12-02T04:24:01.519Z,2.97
2022-12-02T04:29:08.880Z,2.95
2022-12-02T04:34:13.682Z,3.00
2022-12-02T04:39:18.588Z,3.08
2022-12-02T04:44:25.844Z,3.95
2022-12-02T04:49:33.626Z,10.07
2022-12-02T04:54:38.354Z,3.67
2022-12-02T04:59:45.589Z,3.50
2022-12-02T05:04:50.239Z,3.03
2022-12-02T05:09:55.268Z,4.20
2022-12-02T05:15:02.558Z,3.72
2022-12-02T05:20:07.453Z,3.38
2022-12-02T05:25:12.479Z,3.42
2022-12-02T05:30:20.073Z,4.07
2022-12-02T05:35:24.725Z,4.60
2022-12-02T05:40:29.404Z,3.60
2022-12-02T05:45:36.703Z,3.75
2022-12-02T05:50:41.536Z,5.18
2022-12-02T05:55:46.231Z,5.22
2022-12-02T06:00:56.554Z,4.30
2022-12-02T06:06:01.245Z,3.65
2022-12-02T06:11:07.165Z,3.60
2022-12-02T06:16:21.346Z,3.13
2022-12-02T06:21:26.249Z,3.20
2022-12-02T06:26:30.899Z,3.10
2022-12-02T06:31:39.666Z,4.50
2022-12-02T06:36:49.807Z,3.63
2022-12-02T06:41:55.003Z,4.50
2022-12-02T06:47:02.649Z,3.85
2022-12-02T06:52:19.408Z,3.42
2022-12-02T06:57:24.074Z,3.97
2022-12-02T07:02:34.091Z,4.30
2022-12-02T07:07:39.486Z,4.30
2022-12-02T07:12:45.661Z,4.65
2022-12-02T07:17:53.086Z,4.07
2022-12-02T07:23:00.250Z,4.53
2022-12-02T07:28:05.771Z,5.18
2022-12-02T07:33:13.024Z,4.22
2022-12-02T07:38:23.739Z,4.38
2022-12-02T07:43:41.447Z,3.30
2022-12-02T07:48:52.974Z,3.67
2022-12-02T07:54:00.587Z,4.20
2022-12-02T07:59:13.482Z,5.05
2022-12-02T08:04:21.604Z,3.97
2022-12-02T08:09:26.500Z,3.20
2022-12-02T08:14:40.292Z,3.83
2022-12-02T08:42:53.698Z,3.67
2022-12-02T08:59:24.670Z,4.20
2022-12-02T09:04:29.781Z,4.57
2022-12-02T09:09:34.652Z,8.98
2022-12-02T09:14:41.994Z,4.22
2022-12-02T09:19:46.699Z,4.10
2022-12-02T09:24:51.790Z,5.22
2022-12-02T09:29:59.587Z,5.32
2022-12-02T09:35:04.782Z,5.15
2022-12-02T09:40:13.376Z,5.10
2022-12-02T09:45:20.938Z,4.50
2022-12-02T09:50:25.999Z,7.15
2022-12-02T10:01:02.461Z,3.87
2022-12-02T10:17:01.787Z,8.43
2022-12-02T10:22:08.567Z,5.70
2022-12-02T10:27:25.843Z,14.55
2022-12-02T10:32:33.189Z,3.78
2022-12-02T10:37:38.105Z,3.30
2022-12-02T11:05:18.596Z,3.83
2022-12-02T11:10:23.967Z,3.53
2022-12-02T11:15:45.656Z,2.72
2022-12-02T11:20:56.245Z,8.73
2022-12-02T11:31:41.504Z,18.05
2022-12-02T11:36:48.902Z,11.40
2022-12-02T11:42:08.288Z,49.95
2022-12-02T11:47:25.491Z,26.67
2022-12-02T11:52:32.805Z,42.97
2022-12-02T11:57:44.537Z,11.63
2022-12-02T12:02:49.255Z,8.43
2022-12-02T12:08:02.595Z,18.38
2022-12-02T12:13:19.446Z,6.72
2022-12-02T12:18:39.059Z,7.60
2022-12-02T12:23:47.149Z,11.82
2022-12-02T12:34:36.723Z,7.18
2022-12-02T12:39:44.170Z,6.68
2022-12-02T12:44:49.535Z,12.65
2022-12-02T12:49:54.526Z,14.75
2022-12-02T12:55:02.407Z,7.88
2022-12-02T13:10:46.131Z,4.20
2022-12-02T13:15:50.890Z,6.60
2022-12-02T13:20:55.567Z,7.60
2022-12-02T13:26:21.389Z,5.78
2022-12-02T13:31:29.196Z,4.57
2022-12-02T13:36:34.043Z,8.35
2022-12-02T13:41:38.720Z,8.57
2022-12-02T14:20:14.673Z,19.73
2022-12-02T14:25:19.550Z,12.15
2022-12-02T14:30:24.519Z,9.00
2022-12-02T14:35:32.953Z,5.47
2022-12-02T14:40:42.097Z,10.00
2022-12-02T14:46:13.548Z,8.63
2022-12-02T14:56:59.694Z,5.80
2022-12-02T15:02:06.471Z,10.45
2022-12-02T15:07:11.303Z,10.77
2022-12-02T15:12:18.754Z,12.18
2022-12-02T15:17:23.420Z,14.23
2022-12-02T15:22:28.944Z,7.05
2022-12-02T15:27:36.464Z,5.95
2022-12-02T15:32:41.581Z,8.82
2022-12-02T15:37:46.192Z,6.90
2022-12-02T15:42:53.407Z,8.60
2022-12-02T15:47:58.078Z,6.43
2022-12-02T15:53:02.745Z,6.60
2022-12-02T15:58:10.075Z,7.93
2022-12-02T16:03:14.747Z,8.10
2022-12-02T16:08:19.557Z,8.02
2022-12-02T16:25:02.760Z,6.60
2022-12-02T16:30:11.088Z,10.05
2022-12-02T16:35:18.432Z,6.32
2022-12-02T16:40:23.099Z,11.13
2022-12-02T16:56:57.329Z,13.57
2022-12-02T18:13:50.667Z,11.70
2022-12-02T18:35:29.059Z,19.88
2022-12-02T18:40:36.823Z,18.75
2022-12-02T18:45:41.441Z,26.70
2022-12-02T18:50:46.188Z,11.50
2022-12-02T18:55:53.498Z,27.50
2022-12-02T19:00:58.170Z,19.33
2022-12-02T19:06:02.901Z,14.75
2022-12-02T19:11:11.368Z,11.70
2022-12-02T19:26:59.291Z,7.40
2022-12-02T19:32:04.181Z,9.00
2022-12-02T19:37:08.835Z,10.65
2022-12-02T19:42:16.099Z,7.45
2022-12-02T19:47:20.793Z,11.15
2022-12-02T19:52:25.739Z,20.95
2022-12-02T19:57:33.236Z,21.10
2022-12-02T20:02:38.681Z,20.10
2022-12-02T20:07:43.899Z,31.65
2022-12-02T20:34:35.553Z,9.70
2022-12-02T20:39:40.561Z,6.03
2022-12-02T20:44:52.310Z,4.07
2022-12-02T20:49:57.274Z,4.18
2022-12-02T20:55:04.449Z,9.13
2022-12-02T21:00:14.008Z,4.88
2022-12-02T21:10:37.873Z,10.68
2022-12-02T21:15:45.302Z,23.40
2022-12-02T21:20:50.108Z,38.92
2022-12-02T21:25:57.655Z,51.20
2022-12-02T21:36:30.497Z,4.97
2022-12-02T21:41:35.204Z,3.85
2022-12-02T21:46:44.341Z,4.40
2022-12-02T21:51:50.489Z,4.88
2022-12-02T21:56:55.217Z,15.27
2022-12-02T22:02:02.713Z,14.40
2022-12-02T22:07:34.659Z,10.50
2022-12-02T22:12:39.719Z,7.13
2022-12-02T22:17:47.170Z,4.70
2022-12-02T22:22:51.852Z,6.30
2022-12-02T22:27:56.858Z,6.50
2022-12-02T22:33:04.248Z,6.50
2022-12-02T22:38:08.906Z,5.30
2022-12-02T22:43:13.941Z,3.85
2022-12-02T22:48:23.209Z,5.25
2022-12-02T22:53:27.967Z,4.22
2022-12-02T22:58:32.882Z,3.85
2022-12-02T23:03:40.802Z,2.70
2022-12-02T23:08:45.580Z,3.47
2022-12-02T23:13:50.389Z,3.00
2022-12-02T23:18:58.031Z,3.13
2022-12-02T23:24:02.744Z,4.70
2022-12-02T23:40:15.032Z,4.13
2022-12-02T23:45:19.925Z,3.50
2022-12-02T23:50:24.565Z,6.75
2022-12-02T23:55:31.840Z,13.02
